Terminal Aerodrome Forecast
Issued by NWS Medford, OR

Home | Current Version | Previous Version | Text Only | Print | Product List | Glossary On
Versions: 1 2 3 4 5 6 7 8 9 10 11
855
FTUS46 KMFR 232320
TAFMFR
TAF
KMFR 232320Z 2400/2424 30008KT P6SM -SHRA OVC060
     FM240300 VRB03KT P6SM -SHRA OVC050
     FM240600 VRB03KT P6SM -RA OVC040
     FM241900 30010KT P6SM -SHRA SCT020 OVC040=

USA.gov is the U.S. government's official web portal to all federal, state and local government web resources and services.